Time;durP1;ratioP1;P1;durP2;ratioP2;P2;SDS_P1;SDS_P2;PMS_P1;PMS_P2;Temp;Humidity;BMP_temperature;BMP_pressure;BME280_temperature;BME280_humidity;BME280_pressure;Samples;Min_cycle;Max_cycle;Signal;HPM_P1;HPM_P2
2022/09/20 00:01:04;;;;;;;9.45;1.33;;;8.90;99.90;;;;;;4987036;28;20078;-68
2022/09/20 00:03:29;;;;;;;7.40;0.90;;;8.80;99.90;;;;;;5002826;28;20050;-67
2022/09/20 00:06:00;;;;;;;7.72;0.90;;;8.80;99.90;;;;;;5003781;28;20500;-67
2022/09/20 00:08:26;;;;;;;9.65;1.00;;;8.80;99.90;;;;;;4996418;28;20045;-67
2022/09/20 00:11:01;;;;;;;10.18;0.93;;;8.70;99.90;;;;;;5001891;28;20160;-67
2022/09/20 00:13:28;;;;;;;7.00;0.90;;;8.80;99.90;;;;;;5006882;28;20038;-67
2022/09/20 00:15:54;;;;;;;7.70;1.13;;;8.70;99.90;;;;;;5005428;28;20602;-68
2022/09/20 00:18:20;;;;;;;11.50;1.50;;;8.70;99.90;;;;;;5003734;28;20116;-68
2022/09/20 00:20:46;;;;;;;7.03;0.90;;;8.70;99.90;;;;;;5004778;28;20046;-67
2022/09/20 00:23:12;;;;;;;7.13;1.02;;;8.70;99.90;;;;;;5004567;28;20042;-67
2022/09/20 00:25:38;;;;;;;8.00;0.98;;;8.60;99.90;;;;;;4983726;28;20053;-68
2022/09/20 00:28:04;;;;;;;5.85;0.68;;;8.60;99.90;;;;;;5003169;28;20045;-67
2022/09/20 00:30:32;;;;;;;6.68;0.93;;;8.60;99.90;;;;;;5002573;28;20046;-68
2022/09/20 00:32:58;;;;;;;6.50;1.30;;;8.60;99.90;;;;;;4997178;28;20082;-67
2022/09/20 00:35:24;;;;;;;6.88;0.75;;;8.50;99.90;;;;;;4997356;28;20156;-67
2022/09/20 00:37:49;;;;;;;8.70;1.33;;;8.50;99.90;;;;;;5000493;28;20046;-68
2022/09/20 00:40:19;;;;;;;5.15;1.00;;;8.50;99.90;;;;;;5000700;28;20113;-68
2022/09/20 00:42:45;;;;;;;7.15;1.02;;;8.40;99.90;;;;;;4998640;28;20395;-68
2022/09/20 00:45:26;;;;;;;5.70;1.13;;;8.40;99.90;;;;;;5000037;28;20050;-68
2022/09/20 00:48:16;;;;;;;9.05;0.75;;;8.30;99.90;;;;;;5000977;28;20042;-68
2022/09/20 00:50:50;;;;;;;8.98;0.90;;;8.30;99.90;;;;;;5006109;28;20049;-68
2022/09/20 00:53:21;;;;;;;10.10;1.10;;;8.20;99.90;;;;;;5003848;28;20065;-68
2022/09/20 00:55:51;;;;;;;6.88;0.80;;;8.20;99.90;;;;;;4980154;28;20384;-68
2022/09/20 00:58:19;;;;;;;10.40;1.48;;;8.10;99.90;;;;;;5003034;28;20041;-68
2022/09/20 01:00:45;;;;;;;9.65;0.90;;;8.10;99.90;;;;;;5002767;28;20440;-68
2022/09/20 01:03:13;;;;;;;9.57;0.60;;;8.10;99.90;;;;;;4983489;28;20126;-68
2022/09/20 01:05:41;;;;;;;5.15;0.50;;;8.00;99.90;;;;;;4998570;28;20447;-68
2022/09/20 01:08:07;;;;;;;8.43;0.65;;;8.00;99.90;;;;;;5001456;28;20485;-68
2022/09/20 01:10:33;;;;;;;10.30;0.75;;;8.00;99.90;;;;;;5003525;28;20041;-68
2022/09/20 01:12:59;;;;;;;7.47;1.00;;;7.90;99.90;;;;;;5004951;28;20409;-68
2022/09/20 01:15:28;;;;;;;8.15;0.70;;;7.90;99.90;;;;;;5000854;28;20081;-68
2022/09/20 01:17:56;;;;;;;8.45;1.00;;;7.80;99.90;;;;;;4998170;28;20057;-68
2022/09/20 01:20:31;;;;;;;8.20;1.08;;;7.80;99.90;;;;;;5001398;28;20038;-68
2022/09/20 01:22:56;;;;;;;5.53;1.33;;;7.80;99.90;;;;;;4999035;28;20045;-68
2022/09/20 01:25:58;;;;;;;7.10;0.63;;;7.70;99.90;;;;;;5003466;28;20088;-68
2022/09/20 01:28:25;;;;;;;6.00;1.17;;;7.70;99.90;;;;;;5005424;28;20037;-68
2022/09/20 01:31:09;;;;;;;7.05;1.17;;;7.70;99.90;;;;;;5002242;28;20050;-68
2022/09/20 01:33:41;;;;;;;6.57;0.90;;;7.70;99.90;;;;;;5001208;28;20072;-68
2022/09/20 01:36:12;;;;;;;5.88;0.68;;;7.60;99.90;;;;;;4998577;28;20076;-68
2022/09/20 01:39:33;;;;;;;7.43;0.75;;;7.70;99.90;;;;;;5001950;28;20498;-68
2022/09/20 01:42:04;;;;;;;8.65;1.42;;;7.60;99.90;;;;;;4958123;28;20502;-68
2022/09/20 01:44:34;;;;;;;7.55;0.85;;;7.70;99.90;;;;;;4998928;28;20092;-68
2022/09/20 01:47:25;;;;;;;6.13;0.68;;;7.60;99.90;;;;;;4998255;28;20046;-68
2022/09/20 01:50:03;;;;;;;7.45;0.88;;;7.60;99.90;;;;;;4997270;28;20042;-68
2022/09/20 01:52:47;;;;;;;8.65;1.40;;;7.60;99.90;;;;;;5000492;28;20055;-68
2022/09/20 01:55:44;;;;;;;9.77;0.80;;;7.60;99.90;;;;;;4998675;28;20441;-68
2022/09/20 01:58:47;;;;;;;6.88;0.77;;;7.60;99.90;;;;;;4956885;28;20509;-68
2022/09/20 02:01:15;;;;;;;5.82;1.10;;;7.60;99.90;;;;;;5005093;28;20042;-68
2022/09/20 02:03:46;;;;;;;7.68;1.27;;;7.60;99.90;;;;;;5002378;28;20440;-68
2022/09/20 02:06:45;;;;;;;4.07;0.70;;;7.60;99.90;;;;;;5000294;28;20047;-68
2022/09/20 02:09:30;;;;;;;6.53;1.00;;;7.60;99.90;;;;;;5005743;28;20096;-68
2022/09/20 02:12:09;;;;;;;10.18;1.38;;;7.60;99.90;;;;;;5005809;28;20125;-68
2022/09/20 02:14:41;;;;;;;7.60;1.10;;;7.60;99.90;;;;;;4987630;28;20056;-68
2022/09/20 02:17:17;;;;;;;8.73;1.10;;;7.60;99.90;;;;;;5008303;28;20444;-68
2022/09/20 02:19:52;;;;;;;4.25;0.85;;;7.60;99.90;;;;;;5001443;28;20054;-68
2022/09/20 02:22:42;;;;;;;7.82;1.15;;;7.60;99.90;;;;;;5003479;28;20046;-68
2022/09/20 02:25:38;;;;;;;7.90;1.10;;;7.60;99.90;;;;;;5002466;28;20088;-68
2022/09/20 02:28:22;;;;;;;6.53;0.77;;;7.60;99.90;;;;;;4998884;28;20281;-68
2022/09/20 02:31:10;;;;;;;6.43;0.88;;;7.50;99.90;;;;;;5009902;28;20054;-68
2022/09/20 02:34:21;;;;;;;7.13;0.80;;;7.50;99.90;;;;;;4993456;28;20065;-68
2022/09/20 02:37:04;;;;;;;6.15;0.90;;;7.50;99.90;;;;;;5009629;28;20053;-68
2022/09/20 02:40:01;;;;;;;5.93;1.00;;;7.50;99.90;;;;;;4999963;28;20041;-68
2022/09/20 02:42:30;;;;;;;8.68;0.90;;;7.40;99.90;;;;;;5005509;28;20037;-68
2022/09/20 02:45:19;;;;;;;4.78;0.60;;;7.40;99.90;;;;;;5004405;28;20140;-68
2022/09/20 02:47:46;;;;;;;6.95;1.00;;;7.40;99.90;;;;;;5003753;28;20049;-68
2022/09/20 02:50:20;;;;;;;7.35;0.80;;;7.30;99.90;;;;;;5005589;28;20049;-68
2022/09/20 02:53:17;;;;;;;4.65;0.70;;;7.30;99.90;;;;;;5006814;28;20053;-68
2022/09/20 02:56:13;;;;;;;5.05;0.70;;;7.30;99.90;;;;;;4960225;28;20066;-68
2022/09/20 02:59:08;;;;;;;6.93;1.15;;;7.30;99.90;;;;;;5003888;28;20041;-68
2022/09/20 03:01:58;;;;;;;5.30;0.77;;;7.20;99.90;;;;;;5008602;28;20409;-68
2022/09/20 03:05:18;;;;;;;4.45;0.80;;;7.20;99.90;;;;;;5002199;28;20297;-68
2022/09/20 03:08:02;;;;;;;5.43;0.82;;;7.20;99.90;;;;;;4946985;28;20043;-68
2022/09/20 03:10:34;;;;;;;6.55;1.02;;;7.20;99.90;;;;;;5009227;28;20129;-68
2022/09/20 03:13:28;;;;;;;6.57;1.00;;;7.20;99.90;;;;;;5006878;28;20539;-68
2022/09/20 03:16:20;;;;;;;7.30;1.70;;;7.30;99.90;;;;;;5001716;28;20061;-68
2022/09/20 03:19:25;;;;;;;13.23;1.40;;;7.30;99.90;;;;;;5003138;28;20493;-68
2022/09/20 03:22:33;;;;;;;8.00;1.10;;;7.40;99.90;;;;;;5002427;28;20037;-68
2022/09/20 03:25:02;;;;;;;6.88;1.17;;;7.40;99.90;;;;;;4988245;28;20046;-68
2022/09/20 03:27:49;;;;;;;5.15;0.93;;;7.50;99.90;;;;;;5002447;28;20034;-68
2022/09/20 03:30:27;;;;;;;9.50;1.30;;;7.50;99.90;;;;;;5002056;28;20046;-68
2022/09/20 03:33:05;;;;;;;7.60;1.30;;;7.60;99.90;;;;;;5001749;28;20038;-68
2022/09/20 03:36:00;;;;;;;4.88;1.10;;;7.70;99.90;;;;;;5007981;28;20092;-68
2022/09/20 03:38:48;;;;;;;5.45;1.20;;;7.70;99.90;;;;;;4984937;28;20490;-68
2022/09/20 03:41:22;;;;;;;6.60;1.38;;;7.90;99.90;;;;;;4985329;28;20034;-68
2022/09/20 03:43:56;;;;;;;10.63;1.50;;;7.90;99.90;;;;;;5004388;28;20046;-68
2022/09/20 03:46:39;;;;;;;3.90;0.90;;;8.00;99.90;;;;;;5005968;28;20512;-68
2022/09/20 03:49:07;;;;;;;4.53;1.05;;;8.00;99.90;;;;;;5005370;28;20042;-68
2022/09/20 03:51:58;;;;;;;4.60;1.25;;;8.10;99.90;;;;;;5003804;28;20045;-68
2022/09/20 03:54:42;;;;;;;2.95;0.80;;;8.20;99.90;;;;;;5004509;28;20046;-68
2022/09/20 03:57:44;;;;;;;5.05;0.88;;;8.20;99.90;;;;;;5003023;28;20470;-68
2022/09/20 04:00:32;;;;;;;7.53;1.27;;;8.30;99.90;;;;;;5003171;28;20104;-68
2022/09/20 04:03:24;;;;;;;5.30;1.27;;;8.40;99.90;;;;;;5001478;28;20042;-68
2022/09/20 04:05:59;;;;;;;6.70;1.00;;;8.40;99.90;;;;;;5013926;28;20046;-68
2022/09/20 04:08:24;;;;;;;;;;;8.50;99.90;;;;;;5003051;28;20505;-68
2022/09/20 04:10:50;;;;;;;6.93;1.20;;;8.50;99.90;;;;;;5002378;28;19917;-68
2022/09/20 04:13:38;;;;;;;8.00;0.95;;;8.60;99.90;;;;;;5004269;28;20045;-68
2022/09/20 04:16:42;;;;;;;5.28;1.13;;;8.60;99.90;;;;;;5002711;28;20412;-68
2022/09/20 04:19:26;;;;;;;6.82;0.95;;;8.70;99.90;;;;;;4895560;29;20429;-68
2022/09/20 04:21:57;;;;;;;4.00;0.63;;;8.80;99.90;;;;;;4892141;29;20052;-68
2022/09/20 04:24:29;;;;;;;7.72;0.93;;;8.80;99.90;;;;;;4964917;28;20120;-68
2022/09/20 04:27:12;;;;;;;5.22;0.93;;;8.90;99.90;;;;;;5004986;28;20049;-68
2022/09/20 04:29:54;;;;;;;6.68;1.70;;;8.90;99.90;;;;;;5005425;28;20081;-68
2022/09/20 04:32:54;;;;;;;10.40;1.20;;;9.00;99.90;;;;;;5005371;28;20601;-68
2022/09/20 04:38:25;;;;;;;;;;;9.10;99.90;;;;;;5001723;28;20053;-67
2022/09/20 04:41:33;;;;;;;7.65;1.17;;;9.20;99.90;;;;;;5002162;28;19922;-68
2022/09/20 04:44:17;;;;;;;7.20;0.90;;;9.30;99.90;;;;;;5000858;28;20038;-68
2022/09/20 04:47:01;;;;;;;7.40;1.80;;;9.40;99.90;;;;;;5004521;28;20068;-68
2022/09/20 04:50:06;;;;;;;8.68;1.05;;;9.50;99.90;;;;;;5004267;28;20056;-68
2022/09/20 04:52:53;;;;;;;4.57;0.90;;;9.60;99.90;;;;;;5006829;28;20045;-68
2022/09/20 04:55:57;;;;;;;3.53;0.52;;;9.60;99.90;;;;;;5004547;28;20033;-68
2022/09/20 04:59:00;;;;;;;6.68;0.63;;;9.70;99.90;;;;;;4958000;28;20046;-68
2022/09/20 05:01:29;;;;;;;4.57;0.68;;;9.70;99.90;;;;;;4990349;28;20044;-69
2022/09/20 05:04:09;;;;;;;4.55;1.15;;;9.60;99.90;;;;;;4998320;28;20045;-69
2022/09/20 05:07:18;;;;;;;5.22;1.00;;;9.60;99.90;;;;;;5004700;28;20077;-68
2022/09/20 05:10:13;;;;;;;7.78;0.98;;;9.60;99.90;;;;;;5004600;28;20057;-69
2022/09/20 05:13:04;;;;;;;4.80;0.80;;;9.60;99.90;;;;;;4998887;28;20041;-68
2022/09/20 05:15:48;;;;;;;5.60;0.80;;;9.60;99.90;;;;;;4998483;28;20054;-69
2022/09/20 05:18:34;;;;;;;9.20;0.90;;;9.60;99.90;;;;;;5003772;28;20034;-69
2022/09/20 05:21:23;;;;;;;4.28;0.68;;;9.60;99.90;;;;;;4996563;28;20512;-68
2022/09/20 05:24:00;;;;;;;4.85;0.98;;;9.60;99.90;;;;;;5002397;28;20068;-69
2022/09/20 05:26:52;;;;;;;6.68;0.80;;;9.60;99.90;;;;;;5004862;28;20049;-68
2022/09/20 05:29:51;;;;;;;4.93;0.77;;;9.60;99.90;;;;;;5001440;28;20394;-68
2022/09/20 05:32:54;;;;;;;5.38;0.93;;;9.60;99.90;;;;;;5007068;28;20367;-68
2022/09/20 05:35:36;;;;;;;5.93;0.80;;;9.70;99.90;;;;;;4940285;28;20065;-68
2022/09/20 05:38:20;;;;;;;4.70;0.63;;;9.60;99.90;;;;;;5012151;28;20034;-69
2022/09/20 05:41:08;;;;;;;7.37;0.90;;;9.70;99.90;;;;;;4992275;28;20050;-68
2022/09/20 05:43:46;;;;;;;6.10;0.85;;;9.70;99.90;;;;;;4995125;28;20348;-69
2022/09/20 05:46:24;;;;;;;3.85;0.82;;;9.80;99.90;;;;;;4992410;28;20053;-69
2022/09/20 05:49:19;;;;;;;5.82;0.98;;;9.80;99.90;;;;;;5002582;28;20042;-70
2022/09/20 05:52:30;;;;;;;7.35;0.95;;;9.90;99.90;;;;;;4998138;28;20093;-70
2022/09/20 05:55:12;;;;;;;7.70;1.23;;;9.90;99.90;;;;;;4960019;28;20927;-69
2022/09/20 05:57:55;;;;;;;4.35;1.05;;;9.90;99.90;;;;;;5003466;28;20050;-70
2022/09/20 06:00:27;;;;;;;4.40;0.88;;;9.90;99.90;;;;;;5000072;28;20042;-70
2022/09/20 06:03:25;;;;;;;5.97;0.77;;;10.00;99.90;;;;;;5001978;28;20046;-67
2022/09/20 06:06:09;;;;;;;4.85;1.00;;;10.00;99.90;;;;;;5002796;28;20469;-69
2022/09/20 06:09:07;;;;;;;3.75;0.70;;;10.10;99.90;;;;;;4987207;28;20047;-69
2022/09/20 06:12:00;;;;;;;4.18;0.85;;;10.10;99.90;;;;;;4996517;28;20548;-69
2022/09/20 06:14:58;;;;;;;7.32;1.00;;;10.10;99.90;;;;;;5002104;28;20713;-69
2022/09/20 06:17:39;;;;;;;4.47;0.82;;;10.20;99.90;;;;;;5008379;28;20061;-69
2022/09/20 06:20:15;;;;;;;5.65;0.70;;;10.30;99.90;;;;;;5005293;28;20073;-69
2022/09/20 06:22:53;;;;;;;3.92;0.80;;;10.40;99.90;;;;;;5007746;28;20035;-69
2022/09/20 06:25:30;;;;;;;7.45;0.60;;;10.40;99.90;;;;;;5005641;28;20535;-69
2022/09/20 06:28:05;;;;;;;4.53;0.65;;;10.50;99.90;;;;;;5007800;28;20511;-69
2022/09/20 06:30:40;;;;;;;4.47;0.60;;;10.50;99.90;;;;;;5008136;28;20778;-69
2022/09/20 06:33:11;;;;;;;12.07;2.03;;;10.60;99.90;;;;;;4997487;28;20053;-69
2022/09/20 06:41:25;;;;;;;5.15;0.63;;;10.60;99.90;;;;;;4999462;28;20102;-69
2022/09/20 06:42:03;;;;;;;3.88;0.68;;;10.60;99.90;;;;;;5002479;28;20042;-69
2022/09/20 06:44:29;;;;;;;5.30;0.90;;;10.60;99.90;;;;;;5002897;28;20052;-69
2022/09/20 06:46:54;;;;;;;2.97;0.60;;;10.60;99.90;;;;;;5003445;28;20042;-69
2022/09/20 06:49:21;;;;;;;4.80;0.82;;;10.60;99.90;;;;;;5005435;28;20421;-69
2022/09/20 06:51:49;;;;;;;5.85;0.73;;;10.60;99.90;;;;;;4984534;28;20046;-69
2022/09/20 06:54:20;;;;;;;6.43;0.90;;;10.50;99.90;;;;;;4999289;28;20045;-69
2022/09/20 06:56:47;;;;;;;6.97;1.00;;;10.60;99.90;;;;;;4999873;28;20070;-69
2022/09/20 06:59:14;;;;;;;8.85;1.17;;;10.60;99.90;;;;;;5009848;28;20087;-69
2022/09/20 07:01:40;;;;;;;2.60;0.80;;;10.50;99.90;;;;;;5006348;28;20116;-69
2022/09/20 07:04:06;;;;;;;4.43;0.77;;;10.60;99.90;;;;;;5001699;28;20065;-69
2022/09/20 07:06:32;;;;;;;6.13;0.80;;;10.60;99.90;;;;;;5002496;28;20417;-69
2022/09/20 07:08:58;;;;;;;5.68;0.75;;;10.60;99.90;;;;;;5005785;28;20030;-69
2022/09/20 07:11:24;;;;;;;5.75;1.15;;;10.60;99.90;;;;;;5000181;28;20061;-69
2022/09/20 07:13:52;;;;;;;6.55;1.13;;;10.70;99.90;;;;;;5003874;28;20125;-69
2022/09/20 07:16:19;;;;;;;8.68;1.20;;;10.90;99.90;;;;;;5004603;28;20107;-69
2022/09/20 07:18:46;;;;;;;6.28;1.17;;;11.30;99.90;;;;;;5005543;28;20518;-69
2022/09/20 07:21:14;;;;;;;6.85;1.10;;;11.70;99.90;;;;;;5005506;28;20064;-69
2022/09/20 07:23:40;;;;;;;6.43;1.08;;;12.00;99.90;;;;;;5003486;28;20073;-69
2022/09/20 07:26:14;;;;;;;5.45;1.13;;;12.30;99.90;;;;;;5003866;28;20046;-69
2022/09/20 07:28:40;;;;;;;3.47;0.88;;;12.50;99.90;;;;;;5001535;28;20482;-69
2022/09/20 07:31:06;;;;;;;7.20;1.17;;;12.80;99.90;;;;;;5004379;28;20046;-68
2022/09/20 07:33:31;;;;;;;5.82;0.80;;;13.40;99.90;;;;;;5004217;28;20045;-69
2022/09/20 07:35:57;;;;;;;3.65;0.80;;;14.50;99.90;;;;;;5009139;28;20038;-69
2022/09/20 07:38:23;;;;;;;7.38;1.15;;;15.20;99.90;;;;;;5000891;28;20064;-69
2022/09/20 07:40:57;;;;;;;6.28;0.80;;;15.80;99.90;;;;;;5004035;28;20540;-68
2022/09/20 07:43:24;;;;;;;3.67;0.75;;;15.70;99.90;;;;;;5007121;28;20042;-69
2022/09/20 07:45:53;;;;;;;4.05;0.50;;;15.50;99.90;;;;;;4978995;28;20073;-69
2022/09/20 07:48:19;;;;;;;3.80;0.60;;;15.40;99.90;;;;;;5006390;28;20056;-69
2022/09/20 07:51:01;;;;;;;5.85;0.70;;;15.20;99.90;;;;;;5004420;28;20040;-69
2022/09/20 07:53:28;;;;;;;7.38;0.95;;;15.10;99.90;;;;;;5007200;28;20050;-69
2022/09/20 07:56:11;;;;;;;5.60;0.90;;;15.00;99.90;;;;;;5003672;28;20061;-69
2022/09/20 07:58:37;;;;;;;5.63;0.60;;;15.00;99.90;;;;;;5005504;28;20065;-68
2022/09/20 08:01:09;;;;;;;3.88;0.65;;;15.00;99.90;;;;;;5003681;28;20422;-69
2022/09/20 08:03:35;;;;;;;4.20;0.60;;;15.10;99.90;;;;;;5002754;28;20038;-69
2022/09/20 08:06:03;;;;;;;5.20;0.85;;;15.30;99.90;;;;;;4998382;28;20045;-68
2022/09/20 08:08:35;;;;;;;5.82;0.70;;;15.70;99.90;;;;;;4997739;28;20112;-67
2022/09/20 08:11:06;;;;;;;3.88;0.68;;;15.60;99.90;;;;;;4999023;28;20442;-67
2022/09/20 08:13:56;;;;;;;9.15;0.80;;;15.30;99.90;;;;;;5005902;28;20370;-68
2022/09/20 08:16:22;;;;;;;6.07;0.50;;;15.00;99.90;;;;;;4993572;28;20060;-67
2022/09/20 08:18:51;;;;;;;5.75;0.75;;;14.80;99.90;;;;;;5002655;28;20054;-67
2022/09/20 08:21:17;;;;;;;6.13;1.20;;;15.10;99.90;;;;;;5003004;28;20405;-67
2022/09/20 08:23:46;;;;;;;3.10;0.50;;;15.30;99.90;;;;;;5001949;28;20041;-68
2022/09/20 08:26:14;;;;;;;4.03;0.60;;;15.70;99.90;;;;;;5002076;28;20501;-67
2022/09/20 08:28:41;;;;;;;3.95;0.50;;;15.90;99.90;;;;;;5003157;28;20061;-67
2022/09/20 08:31:18;;;;;;;5.20;0.55;;;16.00;99.90;;;;;;5000354;28;20100;-67
2022/09/20 08:33:44;;;;;;;5.55;0.60;;;16.10;99.90;;;;;;5003715;28;20053;-68
2022/09/20 08:36:18;;;;;;;4.63;0.55;;;16.20;99.90;;;;;;5005087;28;20444;-68
2022/09/20 08:38:44;;;;;;;5.32;0.60;;;16.40;99.90;;;;;;5005671;28;20470;-68
2022/09/20 08:41:18;;;;;;;7.07;1.08;;;17.00;99.90;;;;;;5004757;28;20153;-67
2022/09/20 08:43:52;;;;;;;5.63;0.63;;;18.10;99.90;;;;;;5018698;28;20125;-67
2022/09/20 08:46:21;;;;;;;5.07;0.63;;;19.10;99.90;;;;;;5003021;28;20054;-68
2022/09/20 08:48:47;;;;;;;4.70;0.80;;;20.00;99.90;;;;;;5003143;28;20111;-68
2022/09/20 08:51:15;;;;;;;4.25;0.60;;;20.80;99.90;;;;;;5004644;28;20038;-68
2022/09/20 08:53:50;;;;;;;4.10;0.47;;;21.50;99.90;;;;;;5005931;28;20069;-68
2022/09/20 08:56:16;;;;;;;4.35;0.60;;;22.10;98.10;;;;;;4997619;28;20080;-67
2022/09/20 08:58:43;;;;;;;5.20;0.73;;;22.20;94.80;;;;;;5000460;28;20048;-68
2022/09/20 09:01:35;;;;;;;6.10;0.73;;;22.30;94.20;;;;;;5006570;28;20078;-68
2022/09/20 09:04:20;;;;;;;4.18;0.90;;;22.60;90.90;;;;;;4998987;28;20045;-68
2022/09/20 09:06:47;;;;;;;4.45;0.50;;;23.10;82.80;;;;;;5000885;28;20043;-68
2022/09/20 09:09:19;;;;;;;4.40;0.70;;;23.50;87.10;;;;;;5006054;28;20038;-68
2022/09/20 09:11:48;;;;;;;2.55;0.43;;;23.70;73.30;;;;;;5004019;28;20034;-68
2022/09/20 09:14:54;;;;;;;4.10;0.75;;;23.30;73.40;;;;;;5006801;28;20048;-68
2022/09/20 09:17:27;;;;;;;6.43;0.60;;;23.00;72.00;;;;;;5001657;28;20050;-68
2022/09/20 09:19:53;;;;;;;;;;;23.30;74.50;;;;;;5006555;28;20042;-68
2022/09/20 09:22:34;;;;;;;4.30;0.77;;;23.60;64.10;;;;;;5005009;28;19925;-68
2022/09/20 09:25:35;;;;;;;4.78;0.50;;;23.90;71.10;;;;;;5003127;28;20046;-68
2022/09/20 09:28:07;;;;;;;5.38;0.82;;;24.00;66.20;;;;;;4997237;28;20057;-68
2022/09/20 09:30:38;;;;;;;3.58;0.52;;;24.00;67.20;;;;;;5002146;28;20038;-67
2022/09/20 09:33:27;;;;;;;4.32;0.77;;;24.30;73.00;;;;;;4999115;28;20366;-67
2022/09/20 09:35:58;;;;;;;2.58;0.65;;;24.90;60.20;;;;;;5006036;28;20049;-67
2022/09/20 09:38:27;;;;;;;7.43;0.50;;;24.80;66.30;;;;;;5003670;28;20088;-67
2022/09/20 09:41:01;;;;;;;4.65;0.47;;;24.80;66.30;;;;;;5008462;28;20493;-67
2022/09/20 09:43:34;;;;;;;5.70;0.70;;;25.00;63.60;;;;;;4997224;28;20129;-67
2022/09/20 09:46:23;;;;;;;3.50;0.63;;;25.10;59.90;;;;;;5002072;28;20046;-67
2022/09/20 09:49:14;;;;;;;3.15;0.47;;;25.00;56.30;;;;;;4997033;28;20050;-68
2022/09/20 09:51:41;;;;;;;6.07;0.70;;;24.80;56.00;;;;;;4995051;28;20054;-68
2022/09/20 09:54:16;;;;;;;4.35;0.75;;;23.90;61.80;;;;;;5000415;28;20034;-68
2022/09/20 09:57:00;;;;;;;5.70;0.82;;;23.10;63.50;;;;;;5005334;28;20034;-67
2022/09/20 09:59:44;;;;;;;3.10;0.50;;;22.20;64.60;;;;;;5001026;28;20043;-67
2022/09/20 10:02:29;;;;;;;2.72;0.50;;;21.70;65.00;;;;;;5003997;28;20502;-68
2022/09/20 10:05:10;;;;;;;4.40;0.65;;;22.30;67.80;;;;;;4999274;28;20050;-68
2022/09/20 10:07:58;;;;;;;5.65;0.60;;;22.10;65.40;;;;;;4998096;28;20165;-68
2022/09/20 10:10:44;;;;;;;5.55;0.55;;;22.00;66.50;;;;;;5004656;28;20204;-68
2022/09/20 10:13:34;;;;;;;6.70;0.70;;;22.20;65.80;;;;;;4999907;28;20049;-68
2022/09/20 10:16:08;;;;;;;4.68;0.70;;;21.70;62.80;;;;;;5003662;28;20046;-68
2022/09/20 10:19:01;;;;;;;2.00;0.43;;;20.70;65.90;;;;;;4991649;28;20045;-68
2022/09/20 10:21:49;;;;;;;4.72;0.32;;;19.10;71.00;;;;;;5006163;28;20042;-68
2022/09/20 10:24:58;;;;;;;5.20;0.60;;;17.50;79.10;;;;;;4990314;28;20090;-69
2022/09/20 10:27:32;;;;;;;2.90;0.40;;;16.30;90.30;;;;;;5005451;28;20528;-69
2022/09/20 10:30:09;;;;;;;4.50;0.60;;;15.40;95.50;;;;;;4983393;28;20457;-69
2022/09/20 10:32:40;;;;;;;3.15;0.50;;;14.90;99.80;;;;;;5003021;28;20050;-69
2022/09/20 10:35:23;;;;;;;7.60;3.92;;;14.60;99.90;;;;;;5001847;28;20042;-68
2022/09/20 10:38:10;;;;;;;4.55;3.03;;;14.40;99.90;;;;;;4983679;28;20557;-69
2022/09/20 10:43:53;;;;;;;5.53;1.95;;;14.20;99.90;;;;;;4965743;28;20054;-69
2022/09/20 10:46:40;;;;;;;3.60;0.57;;;14.20;99.90;;;;;;5004472;28;20060;-69
2022/09/20 10:49:42;;;;;;;5.20;0.60;;;14.30;99.90;;;;;;5003446;28;20077;-69
2022/09/20 10:52:28;;;;;;;3.65;0.32;;;14.40;99.90;;;;;;5000880;28;20038;-69
2022/09/20 10:55:21;;;;;;;4.05;0.43;;;14.50;99.90;;;;;;5000266;28;20162;-69
2022/09/20 10:57:49;;;;;;;4.45;0.52;;;14.60;99.90;;;;;;5002657;28;20434;-69
2022/09/20 11:00:20;;;;;;;5.18;0.70;;;14.70;99.90;;;;;;5005571;28;20038;-69
2022/09/20 11:03:13;;;;;;;4.88;1.05;;;14.80;99.90;;;;;;5005741;28;20050;-69
2022/09/20 11:06:03;;;;;;;3.17;0.38;;;14.90;99.90;;;;;;5002252;28;20034;-69
2022/09/20 11:08:35;;;;;;;3.38;0.50;;;15.00;99.90;;;;;;4988154;28;20042;-69
2022/09/20 11:11:06;;;;;;;4.30;0.88;;;15.10;99.90;;;;;;5003223;28;20054;-70
2022/09/20 11:13:56;;;;;;;5.13;0.52;;;15.20;99.90;;;;;;4985721;28;20057;-67
2022/09/20 11:16:27;;;;;;;3.53;0.52;;;15.40;99.90;;;;;;5001763;28;20042;-70
2022/09/20 11:19:22;;;;;;;2.63;0.40;;;15.50;99.90;;;;;;4988657;28;20046;-67
2022/09/20 11:22:18;;;;;;;3.55;0.45;;;15.60;99.90;;;;;;4988083;28;20380;-67
2022/09/20 11:24:54;;;;;;;2.92;0.40;;;15.90;99.90;;;;;;5003728;28;20066;-67
2022/09/20 11:27:36;;;;;;;5.55;0.47;;;16.20;99.90;;;;;;5004727;28;20057;-68
2022/09/20 11:30:07;;;;;;;5.63;0.60;;;16.90;99.90;;;;;;5006331;28;20085;-69
2022/09/20 11:32:42;;;;;;;3.03;0.40;;;18.20;99.90;;;;;;4998768;28;20050;-68
2022/09/20 11:35:10;;;;;;;3.03;0.30;;;19.60;99.90;;;;;;4980687;28;20099;-69
2022/09/20 11:40:27;;;;;;;3.45;0.43;;;22.00;90.40;;;;;;5897999;23;20050;-68
2022/09/20 11:42:57;;;;;;;4.70;0.57;;;22.60;78.90;;;;;;5021320;28;20049;-68
2022/09/20 11:45:53;;;;;;;5.85;0.40;;;22.90;81.80;;;;;;5027016;28;20138;-68
2022/09/20 11:48:37;;;;;;;5.80;0.57;;;23.00;80.50;;;;;;5022813;28;20151;-68
2022/09/20 11:51:24;;;;;;;7.38;0.75;;;23.40;71.20;;;;;;5031959;28;20076;-68
2022/09/20 11:54:04;;;;;;;5.53;0.80;;;23.40;69.50;;;;;;5036248;28;20047;-68
2022/09/20 11:56:33;;;;;;;4.45;0.45;;;23.40;64.40;;;;;;5053111;28;20041;-68
2022/09/20 11:59:01;;;;;;;4.10;0.70;;;23.00;66.90;;;;;;5021806;28;20464;-68
2022/09/20 12:01:33;;;;;;;4.60;0.45;;;23.00;67.10;;;;;;5010953;28;20055;-67
2022/09/20 12:04:18;;;;;;;4.75;0.50;;;23.30;63.60;;;;;;5031258;28;20041;-68
2022/09/20 12:06:45;;;;;;;3.50;0.50;;;23.40;60.80;;;;;;5029953;28;20060;-68
2022/09/20 12:09:35;;;;;;;7.45;0.68;;;23.70;62.00;;;;;;5026553;28;20053;-68
2022/09/20 12:12:38;;;;;;;3.00;0.38;;;23.60;57.90;;;;;;5022655;28;20657;-67
2022/09/20 12:15:21;;;;;;;2.10;0.40;;;23.50;57.90;;;;;;5038114;28;20052;-68
2022/09/20 12:17:46;;;;;;;4.72;0.70;;;23.90;61.60;;;;;;5030885;28;20058;-67
2022/09/20 12:20:31;;;;;;;3.53;0.50;;;24.40;61.90;;;;;;5032904;28;20042;-68
2022/09/20 12:23:34;;;;;;;3.40;0.55;;;24.90;58.50;;;;;;5029700;28;20053;-68
2022/09/20 12:26:12;;;;;;;3.35;0.40;;;24.10;55.60;;;;;;5032189;28;20056;-67
2022/09/20 12:28:48;;;;;;;3.25;0.40;;;22.90;57.70;;;;;;5036599;28;20040;-68
2022/09/20 12:31:17;;;;;;;2.03;0.50;;;21.70;60.30;;;;;;5030981;28;20053;-67
2022/09/20 12:34:12;;;;;;;3.78;0.52;;;20.70;63.60;;;;;;5038546;28;20115;-67
2022/09/20 12:37:03;;;;;;;5.45;0.47;;;19.80;64.40;;;;;;5026095;28;20556;-67
2022/09/20 12:39:35;;;;;;;3.55;0.50;;;19.00;66.80;;;;;;5031122;28;20045;-67
2022/09/20 12:42:10;;;;;;;3.05;0.40;;;18.40;68.20;;;;;;5003404;28;20050;-67
2022/09/20 12:44:39;;;;;;;4.50;0.52;;;17.90;68.50;;;;;;5000420;28;20061;-67
2022/09/20 12:47:17;;;;;;;4.55;1.05;;;17.60;70.20;;;;;;5007518;28;20366;-68
2022/09/20 12:53:00;;;;;;;6.82;0.60;;;17.10;74.00;;;;;;5006146;28;20053;-67
2022/09/20 12:55:28;;;;;;;4.25;0.65;;;17.00;74.40;;;;;;5002600;28;20042;-68
2022/09/20 12:58:13;;;;;;;5.05;0.65;;;17.10;73.80;;;;;;5001181;28;20050;-68
2022/09/20 13:00:45;;;;;;;3.65;0.90;;;17.40;72.70;;;;;;4979734;28;20133;-68
2022/09/20 13:03:13;;;;;;;6.85;1.23;;;18.20;70.40;;;;;;4993387;28;20054;-68
2022/09/20 13:05:45;;;;;;;6.22;0.90;;;18.30;70.50;;;;;;4998952;28;20050;-68
2022/09/20 13:08:19;;;;;;;3.95;0.50;;;18.20;70.70;;;;;;4996889;28;20060;-68
2022/09/20 13:11:06;;;;;;;2.92;0.43;;;18.10;69.80;;;;;;4994643;28;20392;-68
2022/09/20 13:13:43;;;;;;;7.60;0.60;;;17.90;72.00;;;;;;4997482;28;20559;-67
2022/09/20 13:16:26;;;;;;;4.90;0.73;;;17.60;72.80;;;;;;5000530;28;20042;-67
2022/09/20 13:19:20;;;;;;;5.90;0.68;;;17.60;73.10;;;;;;4997967;28;20128;-68
2022/09/20 13:22:16;;;;;;;3.70;0.50;;;17.70;71.40;;;;;;4996143;28;20062;-68
2022/09/20 13:24:51;;;;;;;5.22;0.60;;;18.70;70.70;;;;;;5000285;28;20432;-67
2022/09/20 13:27:28;;;;;;;4.25;0.40;;;19.60;68.60;;;;;;4995262;28;20045;-67
2022/09/20 13:29:54;;;;;;;3.08;0.95;;;19.80;65.10;;;;;;4997891;28;20526;-66
2022/09/20 13:32:31;;;;;;;4.53;0.32;;;19.60;65.00;;;;;;5007103;28;20053;-66
2022/09/20 13:35:14;;;;;;;5.57;0.57;;;19.10;65.50;;;;;;4999047;28;20571;-66
2022/09/20 13:37:56;;;;;;;1.83;0.30;;;18.50;67.40;;;;;;5003044;28;20054;-68
2022/09/20 13:40:32;;;;;;;4.13;0.50;;;18.20;69.60;;;;;;5000426;28;20046;-66
2022/09/20 13:43:01;;;;;;;3.47;0.30;;;18.20;68.20;;;;;;5001889;28;20062;-66
2022/09/20 13:45:27;;;;;;;3.85;0.40;;;18.30;69.00;;;;;;5004857;28;20042;-66
2022/09/20 13:47:56;;;;;;;3.22;0.47;;;18.40;69.40;;;;;;5001385;28;20030;-66
2022/09/20 13:50:25;;;;;;;3.33;0.30;;;18.40;70.30;;;;;;5006089;28;20042;-66
2022/09/20 13:52:54;;;;;;;2.47;0.40;;;18.50;68.30;;;;;;5005356;28;20073;-67
2022/09/20 13:55:33;;;;;;;2.35;0.28;;;18.60;68.70;;;;;;5010293;28;20436;-66
2022/09/20 13:58:02;;;;;;;3.40;0.50;;;18.60;65.50;;;;;;5005704;28;20130;-66
2022/09/20 14:00:30;;;;;;;5.30;0.52;;;18.40;67.50;;;;;;5012116;28;20634;-66
2022/09/20 14:02:57;;;;;;;3.50;0.55;;;18.10;68.20;;;;;;5009512;28;20050;-66
2022/09/20 14:05:28;;;;;;;3.78;0.40;;;17.90;70.20;;;;;;5007307;28;20359;-66